createdAt,value
2022-09-28T00:00:47.345Z,0.00
2022-09-28T00:01:47.368Z,0.00
2022-09-28T00:02:47.335Z,0.00
2022-09-28T00:03:47.234Z,0.00
2022-09-28T00:04:47.191Z,0.00
2022-09-28T00:05:47.138Z,0.00
2022-09-28T00:06:47.097Z,0.00
2022-09-28T00:07:47.057Z,0.00
2022-09-28T00:08:47.016Z,0.00
2022-09-28T00:09:46.973Z,0.00
2022-09-28T00:10:46.971Z,0.00
2022-09-28T00:11:46.893Z,0.00
2022-09-28T00:12:46.849Z,0.00
2022-09-28T00:13:46.811Z,0.00
2022-09-28T00:14:46.767Z,0.00
2022-09-28T00:15:46.725Z,0.00
2022-09-28T00:16:46.764Z,0.00
2022-09-28T00:17:46.642Z,0.00
2022-09-28T00:18:46.606Z,0.00
2022-09-28T00:19:46.560Z,0.00
2022-09-28T00:20:46.525Z,0.00
2022-09-28T00:21:46.494Z,0.00
2022-09-28T00:22:46.437Z,0.00
2022-09-28T00:23:46.395Z,0.00
2022-09-28T00:24:46.356Z,0.00
2022-09-28T00:25:46.319Z,0.00
2022-09-28T00:26:46.272Z,0.00
2022-09-28T00:27:46.242Z,0.00
2022-09-28T00:28:46.189Z,0.00
2022-09-28T00:29:46.150Z,0.00
2022-09-28T00:30:46.107Z,0.00
2022-09-28T00:31:46.128Z,0.00
2022-09-28T00:32:46.024Z,0.00
2022-09-28T00:33:45.995Z,0.00
2022-09-28T00:34:46.013Z,0.00
2022-09-28T00:35:45.902Z,0.00
2022-09-28T00:36:45.862Z,0.00
2022-09-28T00:37:45.816Z,0.00
2022-09-28T00:38:45.777Z,0.00
2022-09-28T00:39:45.750Z,0.00
2022-09-28T00:40:45.718Z,0.00
2022-09-28T00:41:45.652Z,0.00
2022-09-28T00:42:45.614Z,0.00
2022-09-28T00:43:45.571Z,0.00
2022-09-28T00:44:45.531Z,0.00
2022-09-28T00:45:45.544Z,0.00
2022-09-28T00:46:45.448Z,0.00
2022-09-28T00:47:45.406Z,0.00
2022-09-28T00:48:45.365Z,0.00
2022-09-28T00:49:45.323Z,0.00
2022-09-28T00:50:45.280Z,0.00
2022-09-28T00:51:45.255Z,0.00
2022-09-28T00:52:45.201Z,0.00
2022-09-28T00:53:45.159Z,0.00
2022-09-28T00:54:45.118Z,0.00
2022-09-28T00:55:45.092Z,0.00
2022-09-28T00:56:45.032Z,0.00
2022-09-28T00:57:44.992Z,0.00
2022-09-28T00:58:44.950Z,0.00
2022-09-28T00:59:44.910Z,0.00
2022-09-28T01:00:44.902Z,0.00
2022-09-28T01:01:44.878Z,0.00
2022-09-28T01:02:44.786Z,0.00
2022-09-28T01:03:44.744Z,0.00
2022-09-28T01:04:44.702Z,0.00
2022-09-28T01:05:44.661Z,0.00
2022-09-28T01:06:44.621Z,0.00
2022-09-28T01:07:44.592Z,0.00
2022-09-28T01:08:44.539Z,0.00
2022-09-28T01:09:44.498Z,0.00
2022-09-28T01:10:44.456Z,0.00
2022-09-28T01:11:44.414Z,0.00
2022-09-28T01:12:44.371Z,0.00
2022-09-28T01:13:44.352Z,0.00
2022-09-28T01:14:44.292Z,0.00
2022-09-28T01:15:44.246Z,0.00
2022-09-28T01:16:44.262Z,0.00
2022-09-28T01:17:44.165Z,0.00
2022-09-28T01:18:44.123Z,0.00
2022-09-28T01:19:44.094Z,0.00
2022-09-28T01:20:44.042Z,0.00
2022-09-28T01:21:43.998Z,0.00
2022-09-28T01:22:43.958Z,0.00
2022-09-28T01:23:43.920Z,0.00
2022-09-28T01:24:43.875Z,0.00
2022-09-28T01:25:43.847Z,0.00
2022-09-28T01:26:43.790Z,0.00
2022-09-28T01:27:43.755Z,0.00
2022-09-28T01:28:43.715Z,0.00
2022-09-28T01:29:43.669Z,0.00
2022-09-28T01:30:43.628Z,0.00
2022-09-28T01:31:43.638Z,0.00
2022-09-28T01:32:43.552Z,0.00
2022-09-28T01:33:43.505Z,0.00
2022-09-28T01:34:43.465Z,0.00
2022-09-28T01:35:43.419Z,0.00
2022-09-28T01:36:43.381Z,0.00
2022-09-28T01:37:43.355Z,0.00
2022-09-28T01:38:43.300Z,0.00
2022-09-28T01:39:43.255Z,0.00
2022-09-28T01:40:43.260Z,0.00
2022-09-28T01:41:43.172Z,0.00
2022-09-28T01:42:43.143Z,0.00
2022-09-28T01:43:43.094Z,0.00
2022-09-28T01:44:43.051Z,0.00
2022-09-28T01:45:43.024Z,0.00
2022-09-28T01:46:42.965Z,0.00
2022-09-28T01:47:42.938Z,0.00
2022-09-28T01:48:42.899Z,0.00
2022-09-28T01:49:42.844Z,0.00
2022-09-28T01:50:42.809Z,0.00
2022-09-28T01:51:42.757Z,0.00
2022-09-28T01:52:42.733Z,0.00
2022-09-28T01:53:42.712Z,0.00
2022-09-28T01:54:42.644Z,0.00
2022-09-28T01:55:42.601Z,0.00
2022-09-28T01:56:42.553Z,0.00
2022-09-28T01:57:42.514Z,0.00
2022-09-28T01:58:42.470Z,0.00
2022-09-28T01:59:42.439Z,0.00
2022-09-28T02:00:42.429Z,0.00
2022-09-28T02:01:42.371Z,0.00
2022-09-28T02:02:42.306Z,0.00
2022-09-28T02:03:42.265Z,0.00
2022-09-28T02:04:42.235Z,0.00
2022-09-28T02:05:42.182Z,0.00
2022-09-28T02:06:42.140Z,0.00
2022-09-28T02:07:42.102Z,0.00
2022-09-28T02:08:42.063Z,0.00
2022-09-28T02:09:42.019Z,0.00
2022-09-28T02:10:41.991Z,0.00
2022-09-28T02:11:41.932Z,0.00
2022-09-28T02:12:41.893Z,0.00
2022-09-28T02:13:41.851Z,0.00
2022-09-28T02:14:41.810Z,0.00
2022-09-28T02:15:41.779Z,0.00
2022-09-28T02:16:41.787Z,0.00
2022-09-28T02:17:41.689Z,0.00
2022-09-28T02:18:41.645Z,0.00
2022-09-28T02:19:41.600Z,0.00
2022-09-28T02:20:41.563Z,0.00
2022-09-28T02:21:41.532Z,0.00
2022-09-28T02:22:41.478Z,0.00
2022-09-28T02:23:41.437Z,0.00
2022-09-28T02:24:41.412Z,0.00
2022-09-28T02:25:41.354Z,0.00
2022-09-28T02:26:41.313Z,0.00
2022-09-28T02:27:41.289Z,0.00
2022-09-28T02:28:41.232Z,0.00
2022-09-28T02:29:41.188Z,0.00
2022-09-28T02:30:41.150Z,0.00
2022-09-28T02:31:41.154Z,0.00
2022-09-28T02:32:41.064Z,0.00
2022-09-28T02:33:41.036Z,0.00
2022-09-28T02:34:40.986Z,0.00
2022-09-28T02:35:40.945Z,0.00
2022-09-28T02:36:40.903Z,0.00
2022-09-28T02:37:40.858Z,0.00
2022-09-28T02:38:40.826Z,0.00
2022-09-28T02:39:40.778Z,0.00
2022-09-28T02:40:40.765Z,0.00
2022-09-28T02:41:40.694Z,0.00
2022-09-28T02:42:40.656Z,0.00
2022-09-28T02:43:40.607Z,0.00
2022-09-28T02:44:40.586Z,0.00
2022-09-28T02:45:40.659Z,0.00
2022-09-28T02:46:40.491Z,0.00
2022-09-28T02:47:40.447Z,0.00
2022-09-28T02:48:43.874Z,0.00
2022-09-28T02:49:40.362Z,0.00
2022-09-28T02:50:40.333Z,0.00
2022-09-28T02:51:40.283Z,0.00
2022-09-28T02:52:40.241Z,0.00
2022-09-28T02:53:40.197Z,0.00
2022-09-28T02:54:40.157Z,0.00
2022-09-28T02:55:40.115Z,0.00
2022-09-28T02:56:40.084Z,0.00
2022-09-28T02:57:40.041Z,0.00
2022-09-28T02:58:39.990Z,0.00
2022-09-28T02:59:39.956Z,0.00
2022-09-28T03:00:39.941Z,0.00
2022-09-28T03:01:39.899Z,0.00
2022-09-28T03:02:39.838Z,0.00
2022-09-28T03:03:39.801Z,0.00
2022-09-28T03:04:39.744Z,0.00
2022-09-28T03:05:39.703Z,0.00
2022-09-28T03:06:39.660Z,0.00
2022-09-28T03:07:39.619Z,0.00
2022-09-28T03:08:39.582Z,0.00
2022-09-28T03:09:39.546Z,0.00
2022-09-28T03:10:39.496Z,0.00
2022-09-28T03:11:39.453Z,0.00
2022-09-28T03:12:39.411Z,0.00
2022-09-28T03:13:39.373Z,0.00
2022-09-28T03:14:39.360Z,0.00
2022-09-28T03:15:39.286Z,0.00
2022-09-28T03:16:39.278Z,0.00
2022-09-28T03:17:39.207Z,0.00
2022-09-28T03:18:39.164Z,0.00
2022-09-28T03:19:39.124Z,0.00
2022-09-28T03:20:39.092Z,0.00
2022-09-28T03:21:39.041Z,0.00
2022-09-28T03:22:39.009Z,0.00
2022-09-28T03:23:38.958Z,0.00
2022-09-28T03:24:38.915Z,0.00
2022-09-28T03:25:38.876Z,0.00
2022-09-28T03:26:38.837Z,0.00
2022-09-28T03:27:38.795Z,0.00
2022-09-28T03:28:38.764Z,0.00
2022-09-28T03:29:38.715Z,0.00
2022-09-28T03:30:38.668Z,0.00
2022-09-28T03:31:38.652Z,0.00
2022-09-28T03:32:38.595Z,0.00
2022-09-28T03:33:38.547Z,0.00
2022-09-28T03:34:38.517Z,0.00
2022-09-28T03:35:38.464Z,0.00
2022-09-28T03:36:38.424Z,0.00
2022-09-28T03:37:38.382Z,0.00
2022-09-28T03:38:38.339Z,0.00
2022-09-28T03:39:38.300Z,0.00
2022-09-28T03:40:38.328Z,0.00
2022-09-28T03:41:38.219Z,0.00
2022-09-28T03:42:38.174Z,0.00
2022-09-28T03:43:38.139Z,0.00
2022-09-28T03:44:38.090Z,0.00
2022-09-28T03:45:38.082Z,0.00
2022-09-28T03:46:38.023Z,0.00
2022-09-28T03:47:37.970Z,0.00
2022-09-28T03:48:37.926Z,0.00
2022-09-28T03:49:37.886Z,0.00
2022-09-28T03:50:37.844Z,0.00
2022-09-28T03:51:37.804Z,0.00
2022-09-28T03:52:37.774Z,0.00
2022-09-28T03:53:37.721Z,0.00
2022-09-28T03:54:37.679Z,0.00
2022-09-28T03:55:37.643Z,0.00
2022-09-28T03:56:37.598Z,0.00
2022-09-28T03:57:37.556Z,0.00
2022-09-28T03:58:37.525Z,0.00
2022-09-28T03:59:37.475Z,0.00
2022-09-28T04:00:37.484Z,0.00
2022-09-28T04:01:37.539Z,0.00
2022-09-28T04:02:37.398Z,0.00
2022-09-28T04:03:37.308Z,0.00
2022-09-28T04:04:37.278Z,0.00
2022-09-28T04:05:37.227Z,0.00
2022-09-28T04:06:37.183Z,0.00
2022-09-28T04:07:37.143Z,0.00
2022-09-28T04:08:37.103Z,0.00
2022-09-28T04:09:37.077Z,0.00
2022-09-28T04:10:37.019Z,0.00
2022-09-28T04:11:59.476Z,0.00
2022-09-28T04:12:36.938Z,0.00
2022-09-28T04:13:36.895Z,0.00
2022-09-28T04:14:36.851Z,0.00
2022-09-28T04:15:36.830Z,0.00
2022-09-28T04:16:36.820Z,0.00
2022-09-28T04:17:40.131Z,0.00
2022-09-28T04:18:36.691Z,0.00
2022-09-28T04:19:36.658Z,0.00
2022-09-28T04:20:36.605Z,0.00
2022-09-28T04:21:36.566Z,0.00
2022-09-28T04:22:36.520Z,0.00
2022-09-28T04:23:36.485Z,0.00
2022-09-28T04:24:36.457Z,0.00
2022-09-28T04:25:36.407Z,0.00
2022-09-28T04:26:36.371Z,0.00
2022-09-28T04:27:36.322Z,0.00
2022-09-28T04:28:36.278Z,0.00
2022-09-28T04:29:36.245Z,0.00
2022-09-28T04:30:36.195Z,0.00
2022-09-28T04:31:36.248Z,0.00
2022-09-28T04:32:36.109Z,0.00
2022-09-28T04:33:36.070Z,0.00
2022-09-28T04:34:39.597Z,0.00
2022-09-28T04:35:35.986Z,0.00
2022-09-28T04:36:35.953Z,0.00
2022-09-28T04:37:35.919Z,0.00
2022-09-28T04:38:52.340Z,0.00
2022-09-28T04:39:35.823Z,0.00
2022-09-28T04:40:35.794Z,0.00
2022-09-28T04:41:35.740Z,0.00
2022-09-28T04:42:35.698Z,0.00
2022-09-28T04:43:35.666Z,0.00
2022-09-28T04:44:35.626Z,0.00
2022-09-28T04:45:35.611Z,0.00
2022-09-28T04:46:35.534Z,0.00
2022-09-28T04:47:35.491Z,0.00
2022-09-28T04:48:35.458Z,0.00
2022-09-28T04:49:35.445Z,0.00
2022-09-28T04:50:35.366Z,0.00
2022-09-28T04:51:35.332Z,0.00
2022-09-28T04:52:35.285Z,0.00
2022-09-28T04:53:35.247Z,0.00
2022-09-28T04:54:35.204Z,0.00
2022-09-28T04:55:35.181Z,0.00
2022-09-28T04:56:35.119Z,0.00
2022-09-28T04:57:35.121Z,0.00
2022-09-28T04:58:35.040Z,0.00
2022-09-28T04:59:34.997Z,4.00
2022-09-28T05:00:34.957Z,4.00
2022-09-28T05:01:34.984Z,0.00
2022-09-28T05:02:34.933Z,4.00
2022-09-28T05:03:34.832Z,4.00
2022-09-28T05:04:34.790Z,8.00
2022-09-28T05:05:34.751Z,4.00
2022-09-28T05:06:34.707Z,8.00
2022-09-28T05:07:34.668Z,12.00
2022-09-28T05:08:34.639Z,12.00
2022-09-28T05:09:38.290Z,16.00
2022-09-28T05:10:34.544Z,16.00
2022-09-28T05:11:34.501Z,20.00
2022-09-28T05:12:34.474Z,24.00
2022-09-28T05:13:34.421Z,24.00
2022-09-28T05:14:34.380Z,28.00
2022-09-28T05:15:34.338Z,32.00
2022-09-28T05:16:34.338Z,36.00
2022-09-28T05:17:34.257Z,40.00
2022-09-28T05:18:34.226Z,56.00
2022-09-28T05:19:34.183Z,64.00
2022-09-28T05:20:34.130Z,64.00
2022-09-28T05:21:34.092Z,68.00
2022-09-28T05:22:34.049Z,92.00
2022-09-28T05:23:34.649Z,104.00
2022-09-28T05:24:33.989Z,112.00
2022-09-28T05:25:33.929Z,120.00
2022-09-28T05:26:33.885Z,148.00
2022-09-28T05:27:33.843Z,168.00
2022-09-28T05:28:33.801Z,176.00
2022-09-28T05:29:33.762Z,216.00
2022-09-28T05:30:33.732Z,224.00
2022-09-28T05:31:33.723Z,208.00
2022-09-28T05:32:33.637Z,232.00
2022-09-28T05:33:33.598Z,272.00
2022-09-28T05:34:33.554Z,284.00
2022-09-28T05:35:33.515Z,320.00
2022-09-28T05:36:33.484Z,376.00
2022-09-28T05:37:33.432Z,396.00
2022-09-28T05:38:33.388Z,320.00
2022-09-28T05:39:33.349Z,316.00
2022-09-28T05:40:33.334Z,360.00
2022-09-28T05:41:33.268Z,424.00
2022-09-28T05:42:33.242Z,516.00
2022-09-28T05:43:33.186Z,508.00
2022-09-28T05:44:33.145Z,412.00
2022-09-28T05:45:33.131Z,428.00
2022-09-28T05:46:33.059Z,544.00
2022-09-28T05:47:33.023Z,620.00
2022-09-28T05:48:32.990Z,580.00
2022-09-28T05:49:32.948Z,612.00
2022-09-28T05:50:32.897Z,548.00
2022-09-28T05:51:32.854Z,500.00
2022-09-28T05:52:32.813Z,496.00
2022-09-28T05:53:32.775Z,480.00
2022-09-28T05:54:32.747Z,584.00
2022-09-28T05:55:32.779Z,652.00
2022-09-28T05:56:32.648Z,736.00
2022-09-28T05:57:32.617Z,748.00
2022-09-28T05:58:32.566Z,780.00
2022-09-28T05:59:32.528Z,684.00
2022-09-28T06:00:33.158Z,728.00
2022-09-28T06:01:32.589Z,680.00
2022-09-28T06:02:32.444Z,672.00
2022-09-28T06:03:32.360Z,864.00
2022-09-28T06:04:32.343Z,752.00
2022-09-28T06:05:32.282Z,748.00
2022-09-28T06:06:32.242Z,800.00
2022-09-28T06:07:32.209Z,784.00
2022-09-28T06:08:32.154Z,688.00
2022-09-28T06:09:32.143Z,764.00
2022-09-28T06:10:32.071Z,840.00
2022-09-28T06:11:32.033Z,912.00
2022-09-28T06:12:32.003Z,1104.00
2022-09-28T06:13:31.949Z,1316.00
2022-09-28T06:14:31.907Z,1424.00
2022-09-28T06:15:31.866Z,1464.00
2022-09-28T06:16:31.879Z,1332.00
2022-09-28T06:17:31.787Z,1212.00
2022-09-28T06:18:31.754Z,1284.00
2022-09-28T06:19:31.705Z,1284.00
2022-09-28T06:20:31.661Z,1220.00
2022-09-28T06:21:31.620Z,1792.00
2022-09-28T06:22:31.573Z,2296.00
2022-09-28T06:23:31.537Z,2524.00
2022-09-28T06:24:31.505Z,2708.00
2022-09-28T06:25:31.457Z,2608.00
2022-09-28T06:26:31.420Z,2496.00
2022-09-28T06:27:31.386Z,2048.00
2022-09-28T06:28:31.329Z,2060.00
2022-09-28T06:29:31.300Z,1616.00
2022-09-28T06:30:31.300Z,1784.00
2022-09-28T06:31:31.218Z,2276.00
2022-09-28T06:32:31.167Z,2060.00
2022-09-28T06:33:31.131Z,2128.00
2022-09-28T06:34:31.093Z,2136.00
2022-09-28T06:35:31.052Z,2084.00
2022-09-28T06:36:31.006Z,2532.00
2022-09-28T06:37:30.982Z,3812.00
2022-09-28T06:38:30.919Z,3804.00
2022-09-28T06:39:30.881Z,3100.00
2022-09-28T06:40:30.889Z,2644.00
2022-09-28T06:41:30.795Z,2700.00
2022-09-28T06:42:30.794Z,2468.00
2022-09-28T06:43:34.278Z,3072.00
2022-09-28T06:44:30.676Z,2852.00
2022-09-28T06:45:30.657Z,2940.00
2022-09-28T06:46:30.675Z,2380.00
2022-09-28T06:47:30.550Z,2652.00
2022-09-28T06:48:30.506Z,2356.00
2022-09-28T06:49:30.467Z,2696.00
2022-09-28T06:50:30.435Z,2876.00
2022-09-28T06:51:30.390Z,3448.00
2022-09-28T06:52:30.348Z,4080.00
2022-09-28T06:53:30.312Z,3696.00
2022-09-28T06:54:30.266Z,3100.00
2022-09-28T06:55:30.242Z,3664.00
2022-09-28T06:56:32.877Z,3692.00
2022-09-28T06:57:30.145Z,3392.00
2022-09-28T06:58:30.097Z,2868.00
2022-09-28T06:59:30.056Z,3280.00
2022-09-28T07:00:30.014Z,3092.00
2022-09-28T07:01:30.040Z,3584.00
2022-09-28T07:02:29.990Z,3048.00
2022-09-28T07:03:29.893Z,3340.00
2022-09-28T07:04:29.851Z,3080.00
2022-09-28T07:05:29.811Z,3028.00
2022-09-28T07:06:29.769Z,3240.00
2022-09-28T07:07:29.742Z,3440.00
2022-09-28T07:08:29.688Z,3724.00
2022-09-28T07:09:33.466Z,3456.00
2022-09-28T07:10:29.605Z,3744.00
2022-09-28T07:11:29.567Z,4228.00
2022-09-28T07:12:29.526Z,5124.00
2022-09-28T07:13:49.237Z,5932.00
2022-09-28T07:14:47.004Z,4216.00
2022-09-28T07:15:29.401Z,3992.00
2022-09-28T07:16:41.214Z,4852.00
2022-09-28T07:17:29.525Z,4728.00
2022-09-28T07:18:29.307Z,4380.00
2022-09-28T07:19:29.250Z,4680.00
2022-09-28T07:20:29.210Z,4632.00
2022-09-28T07:21:30.677Z,4320.00
2022-09-28T07:22:41.252Z,4936.00
2022-09-28T07:23:29.076Z,4272.00
2022-09-28T07:24:29.034Z,3040.00
2022-09-28T07:25:29.010Z,2564.00
2022-09-28T07:26:28.954Z,3276.00
2022-09-28T07:27:29.152Z,4088.00
2022-09-28T07:28:28.871Z,4244.00
2022-09-28T07:29:28.843Z,4316.00
2022-09-28T07:30:28.818Z,5328.00
2022-09-28T07:31:28.754Z,4612.00
2022-09-28T07:32:28.726Z,4224.00
2022-09-28T07:33:28.668Z,5980.00
2022-09-28T07:34:28.632Z,7192.00
2022-09-28T07:35:28.610Z,5804.00
2022-09-28T07:36:28.549Z,5044.00
2022-09-28T07:37:28.507Z,5320.00
2022-09-28T07:38:28.489Z,5240.00
2022-09-28T07:39:28.428Z,5600.00
2022-09-28T07:40:28.440Z,6004.00
2022-09-28T07:41:28.356Z,6076.00
2022-09-28T07:42:28.303Z,7088.00
2022-09-28T07:43:28.262Z,5544.00
2022-09-28T07:44:28.223Z,5152.00
2022-09-28T07:45:28.294Z,7304.00
2022-09-28T07:46:28.143Z,8164.00
2022-09-28T07:47:33.826Z,8704.00
2022-09-28T07:48:28.063Z,9224.00
2022-09-28T07:49:37.223Z,9468.00
2022-09-28T07:50:27.981Z,9652.00
2022-09-28T07:51:27.954Z,9776.00
2022-09-28T07:52:27.982Z,9932.00
2022-09-28T07:53:27.859Z,10072.00
2022-09-28T07:54:27.828Z,9368.00
2022-09-28T07:55:27.782Z,9644.00
2022-09-28T07:56:27.740Z,11104.00
2022-09-28T07:57:27.702Z,11248.00
2022-09-28T07:58:27.659Z,10972.00
2022-09-28T07:59:27.662Z,11040.00
2022-09-28T08:00:29.831Z,11280.00
2022-09-28T08:01:27.602Z,11572.00
2022-09-28T08:02:27.526Z,11264.00
2022-09-28T08:03:27.478Z,11384.00
2022-09-28T08:04:27.437Z,11128.00
2022-09-28T08:05:27.391Z,9896.00
2022-09-28T08:06:27.341Z,9044.00
2022-09-28T08:07:27.307Z,9580.00
2022-09-28T08:08:27.265Z,9796.00
2022-09-28T08:09:27.223Z,10568.00
2022-09-28T08:10:27.194Z,11120.00
2022-09-28T08:11:27.141Z,10640.00
2022-09-28T08:12:27.103Z,9280.00
2022-09-28T08:13:27.425Z,7988.00
2022-09-28T08:14:27.023Z,6296.00
2022-09-28T08:15:26.996Z,7092.00
2022-09-28T08:16:27.075Z,8484.00
2022-09-28T08:17:26.905Z,9624.00
2022-09-28T08:18:26.866Z,10272.00
2022-09-28T08:19:26.825Z,9852.00
2022-09-28T08:20:26.796Z,9060.00
2022-09-28T08:21:26.758Z,6812.00
2022-09-28T08:22:26.709Z,8112.00
2022-09-28T08:23:26.667Z,11400.00
2022-09-28T08:24:26.628Z,11244.00
2022-09-28T08:25:26.589Z,8360.00
2022-09-28T08:26:26.560Z,6716.00
2022-09-28T08:27:26.511Z,6096.00
2022-09-28T08:28:26.478Z,7952.00
2022-09-28T08:29:26.433Z,8596.00
2022-09-28T08:30:26.452Z,9880.00
2022-09-28T08:31:26.389Z,11444.00
2022-09-28T08:32:26.315Z,10080.00
2022-09-28T08:33:26.277Z,7480.00
2022-09-28T08:34:26.234Z,7672.00
2022-09-28T08:35:26.194Z,7332.00
2022-09-28T08:36:26.161Z,6716.00
2022-09-28T08:37:26.134Z,5088.00
2022-09-28T08:38:26.239Z,7388.00
2022-09-28T08:39:26.037Z,8664.00
2022-09-28T08:40:26.043Z,9576.00
2022-09-28T08:41:25.959Z,9860.00
2022-09-28T08:42:25.931Z,6704.00
2022-09-28T08:43:25.881Z,4576.00
2022-09-28T08:44:25.842Z,5696.00
2022-09-28T08:45:25.802Z,5688.00
2022-09-28T08:46:27.146Z,5280.00
2022-09-28T08:47:25.737Z,4752.00
2022-09-28T08:48:25.689Z,4656.00
2022-09-28T08:49:30.874Z,4444.00
2022-09-28T08:50:25.604Z,5080.00
2022-09-28T08:51:25.563Z,4448.00
2022-09-28T08:52:25.528Z,3676.00
2022-09-28T08:53:25.499Z,4424.00
2022-09-28T08:54:25.448Z,5760.00
2022-09-28T08:55:25.405Z,7080.00
2022-09-28T08:56:25.366Z,5480.00
2022-09-28T08:57:25.327Z,3700.00
2022-09-28T08:58:25.295Z,3380.00
2022-09-28T08:59:25.271Z,3756.00
2022-09-28T09:00:25.241Z,4656.00
2022-09-28T09:01:25.183Z,6260.00
2022-09-28T09:02:25.175Z,5844.00
2022-09-28T09:03:25.088Z,7020.00
2022-09-28T09:04:25.049Z,10948.00
2022-09-28T09:05:25.032Z,11160.00
2022-09-28T09:06:24.968Z,8748.00
2022-09-28T09:07:24.955Z,10004.00
2022-09-28T09:08:24.889Z,11492.00
2022-09-28T09:09:24.864Z,11884.00
2022-09-28T09:10:24.807Z,8716.00
2022-09-28T09:11:24.795Z,10304.00
2022-09-28T09:12:24.738Z,8996.00
2022-09-28T09:13:24.691Z,9440.00
2022-09-28T09:14:24.655Z,7868.00
2022-09-28T09:15:24.613Z,5164.00
2022-09-28T09:16:24.642Z,4468.00
2022-09-28T09:17:24.552Z,3944.00
2022-09-28T09:18:24.492Z,3684.00
2022-09-28T09:19:24.455Z,3824.00
2022-09-28T09:20:24.415Z,3912.00
2022-09-28T09:21:24.373Z,4072.00
2022-09-28T09:22:24.333Z,5184.00
2022-09-28T09:23:24.326Z,6056.00
2022-09-28T09:24:24.256Z,5552.00
2022-09-28T09:25:24.217Z,5892.00
2022-09-28T09:26:26.153Z,8268.00
2022-09-28T09:27:24.146Z,8924.00
2022-09-28T09:28:24.096Z,8516.00
2022-09-28T09:29:24.056Z,10212.00
2022-09-28T09:30:24.441Z,9908.00
2022-09-28T09:31:24.011Z,8308.00
2022-09-28T09:32:23.938Z,10160.00
2022-09-28T09:33:23.899Z,10116.00
2022-09-28T09:34:23.860Z,10912.00
2022-09-28T09:35:29.040Z,11092.00
2022-09-28T09:36:23.794Z,11588.00
2022-09-28T09:37:23.743Z,13148.00
2022-09-28T09:38:23.699Z,12780.00
2022-09-28T09:39:23.658Z,10848.00
2022-09-28T09:40:23.653Z,11192.00
2022-09-28T09:41:23.592Z,12052.00
2022-09-28T09:42:23.540Z,11024.00
2022-09-28T09:43:26.753Z,10920.00
2022-09-28T09:44:23.467Z,11044.00
2022-09-28T09:45:23.424Z,11112.00
2022-09-28T09:46:23.452Z,11916.00
2022-09-28T09:47:23.353Z,12080.00
2022-09-28T09:48:23.319Z,11364.00
2022-09-28T09:49:23.266Z,11228.00
2022-09-28T09:50:23.272Z,13004.00
2022-09-28T09:51:23.188Z,10952.00
2022-09-28T09:52:23.219Z,9384.00
2022-09-28T09:53:23.119Z,8636.00
2022-09-28T09:54:23.070Z,7960.00
2022-09-28T09:55:27.439Z,7564.00
2022-09-28T09:56:22.996Z,9284.00
2022-09-28T09:57:22.956Z,9036.00
2022-09-28T09:58:22.919Z,7480.00
2022-09-28T09:59:22.891Z,6380.00
2022-09-28T10:00:22.841Z,5844.00
2022-09-28T10:01:22.818Z,5056.00
2022-09-28T10:02:22.787Z,5592.00
2022-09-28T10:03:22.723Z,7284.00
2022-09-28T10:04:23.290Z,9084.00
2022-09-28T10:05:22.670Z,8580.00
2022-09-28T10:06:22.604Z,8368.00
2022-09-28T10:07:22.566Z,9760.00
2022-09-28T10:08:22.610Z,10396.00
2022-09-28T10:09:22.501Z,8696.00
2022-09-28T10:10:22.473Z,6504.00
2022-09-28T10:11:22.461Z,6960.00
2022-09-28T10:12:22.373Z,8176.00
2022-09-28T10:13:22.345Z,10920.00
2022-09-28T10:14:22.300Z,14636.00
2022-09-28T10:15:22.273Z,15856.00
2022-09-28T10:16:22.254Z,17012.00
2022-09-28T10:17:22.185Z,15208.00
2022-09-28T10:18:22.135Z,13544.00
2022-09-28T10:19:22.098Z,13208.00
2022-09-28T10:20:22.102Z,14716.00
2022-09-28T10:21:22.032Z,15548.00
2022-09-28T10:22:21.997Z,14280.00
2022-09-28T10:23:21.951Z,12124.00
2022-09-28T10:24:21.908Z,12604.00
2022-09-28T10:25:21.861Z,14688.00
2022-09-28T10:26:24.914Z,14028.00
2022-09-28T10:27:21.803Z,14132.00
2022-09-28T10:28:21.749Z,13288.00
2022-09-28T10:29:21.706Z,11684.00
2022-09-28T10:30:21.697Z,13040.00
2022-09-28T10:31:21.661Z,14780.00
2022-09-28T10:32:21.610Z,15868.00
2022-09-28T10:33:21.570Z,15468.00
2022-09-28T10:34:21.518Z,13468.00
2022-09-28T10:35:21.475Z,14280.00
2022-09-28T10:36:21.441Z,15232.00
2022-09-28T10:37:21.404Z,12904.00
2022-09-28T10:38:21.385Z,11040.00
2022-09-28T10:39:21.328Z,11888.00
2022-09-28T10:40:21.336Z,13560.00
2022-09-28T10:41:21.274Z,13936.00
2022-09-28T10:42:21.219Z,13028.00
2022-09-28T10:43:21.171Z,12544.00
2022-09-28T10:44:21.148Z,12312.00
2022-09-28T10:45:21.093Z,13032.00
2022-09-28T10:46:21.208Z,14192.00
2022-09-28T10:47:21.024Z,13156.00
2022-09-28T10:48:20.981Z,10428.00
2022-09-28T10:49:20.963Z,7448.00
2022-09-28T10:50:20.909Z,5264.00
2022-09-28T10:51:20.868Z,4356.00
2022-09-28T10:52:20.827Z,4512.00
2022-09-28T10:53:20.790Z,5816.00
2022-09-28T10:54:20.748Z,8012.00
2022-09-28T10:55:20.721Z,9624.00
2022-09-28T10:56:21.213Z,9876.00
2022-09-28T10:57:20.636Z,9636.00
2022-09-28T10:58:20.596Z,10000.00
2022-09-28T10:59:20.961Z,11392.00
2022-09-28T11:00:20.519Z,14108.00
2022-09-28T11:01:20.562Z,17952.00
2022-09-28T11:02:20.478Z,18752.00
2022-09-28T11:03:20.403Z,18112.00
2022-09-28T11:04:20.379Z,16060.00
2022-09-28T11:05:20.329Z,14112.00
2022-09-28T11:06:20.293Z,12916.00
2022-09-28T11:07:20.258Z,12600.00
2022-09-28T11:08:20.214Z,12212.00
2022-09-28T11:09:20.234Z,11152.00
2022-09-28T11:10:20.161Z,10196.00
2022-09-28T11:11:20.105Z,10508.00
2022-09-28T11:12:20.125Z,10540.00
2022-09-28T11:13:20.025Z,10708.00
2022-09-28T11:14:19.994Z,11132.00
2022-09-28T11:15:19.954Z,11800.00
2022-09-28T11:16:20.042Z,11904.00
2022-09-28T11:17:19.874Z,12192.00
2022-09-28T11:18:19.831Z,13516.00
2022-09-28T11:19:19.794Z,15012.00
2022-09-28T11:20:24.722Z,14728.00
2022-09-28T11:21:19.735Z,14804.00
2022-09-28T11:22:19.692Z,14872.00
2022-09-28T11:23:19.650Z,13940.00
2022-09-28T11:24:19.829Z,12872.00
2022-09-28T11:25:19.564Z,11092.00
2022-09-28T11:26:19.529Z,9864.00
2022-09-28T11:27:19.486Z,9096.00
2022-09-28T11:28:19.463Z,7644.00
2022-09-28T11:29:19.520Z,6448.00
2022-09-28T11:30:19.376Z,5836.00
2022-09-28T11:31:19.342Z,5236.00
2022-09-28T11:32:19.300Z,5036.00
2022-09-28T11:33:19.260Z,5364.00
2022-09-28T11:34:19.369Z,5740.00
2022-09-28T11:35:19.183Z,6816.00
2022-09-28T11:36:19.151Z,8536.00
2022-09-28T11:37:19.108Z,10436.00
2022-09-28T11:38:19.239Z,12000.00
2022-09-28T11:39:19.451Z,13324.00
2022-09-28T11:40:19.041Z,13128.00
2022-09-28T11:41:18.957Z,12652.00
2022-09-28T11:42:18.918Z,12428.00
2022-09-28T11:43:23.729Z,11216.00
2022-09-28T11:44:19.003Z,9800.00
2022-09-28T11:45:18.805Z,9352.00
2022-09-28T11:46:18.806Z,10136.00
2022-09-28T11:47:18.729Z,10884.00
2022-09-28T11:48:18.685Z,10976.00
2022-09-28T11:49:18.648Z,10172.00
2022-09-28T11:50:22.931Z,10200.00
2022-09-28T11:51:18.573Z,11352.00
2022-09-28T11:52:18.546Z,12356.00
2022-09-28T11:53:18.498Z,12488.00
2022-09-28T11:54:18.542Z,12152.00
2022-09-28T11:55:18.420Z,12860.00
2022-09-28T11:56:18.389Z,14220.00
2022-09-28T11:57:18.345Z,14288.00
2022-09-28T11:58:18.320Z,13364.00
2022-09-28T11:59:18.265Z,12284.00
2022-09-28T12:00:18.228Z,11740.00
2022-09-28T12:01:19.156Z,11072.00
2022-09-28T12:02:18.216Z,10488.00
2022-09-28T12:03:18.204Z,9804.00
2022-09-28T12:04:18.157Z,9688.00
2022-09-28T12:05:20.840Z,10012.00
2022-09-28T12:06:17.995Z,11120.00
2022-09-28T12:07:17.959Z,12264.00
2022-09-28T12:08:17.946Z,12692.00
2022-09-28T12:09:17.949Z,12852.00
2022-09-28T12:10:17.859Z,12748.00
2022-09-28T12:11:17.807Z,12804.00
2022-09-28T12:12:17.769Z,21472.00
2022-09-28T12:13:17.731Z,20768.00
2022-09-28T12:14:17.692Z,19616.00
2022-09-28T12:15:17.668Z,18496.00
2022-09-28T12:16:38.914Z,17728.00
2022-09-28T12:17:20.100Z,17280.00
2022-09-28T12:18:17.606Z,16832.00
2022-09-28T12:19:17.611Z,16896.00
2022-09-28T12:20:17.479Z,15696.00
2022-09-28T12:21:17.434Z,16896.00
2022-09-28T12:22:17.394Z,16864.00
2022-09-28T12:23:17.358Z,9496.00
2022-09-28T12:24:17.325Z,15372.00
2022-09-28T12:25:17.302Z,13684.00
2022-09-28T12:26:17.249Z,11016.00
2022-09-28T12:27:17.216Z,11560.00
2022-09-28T12:28:17.181Z,9328.00
2022-09-28T12:29:17.146Z,8688.00
2022-09-28T12:30:17.107Z,8424.00
2022-09-28T12:31:17.144Z,8624.00